createdAt,value
2019-03-24T00:00:46.051Z,101312.95
2019-03-24T00:01:52.131Z,101311.56
2019-03-24T00:02:56.362Z,101315.76
2019-03-24T00:04:00.610Z,101316.87
2019-03-24T00:05:05.792Z,101310.71
2019-03-24T00:06:10.016Z,101310.71
2019-03-24T00:07:14.214Z,101312.38
2019-03-24T00:08:18.382Z,101309.84
2019-03-24T00:09:22.611Z,101305.34
2019-03-24T00:10:26.793Z,101305.57
2019-03-24T00:11:31.152Z,101307.27
2019-03-24T00:12:35.349Z,101304.46
2019-03-24T00:13:39.544Z,101308.64
2019-03-24T00:14:43.729Z,101302.19
2019-03-24T00:15:49.543Z,101307.47
2019-03-24T00:16:53.903Z,101305.75
2019-03-24T00:17:58.083Z,101303.23
2019-03-24T00:19:02.268Z,101306.59
2019-03-24T00:20:06.615Z,101308.26
2019-03-24T00:21:10.798Z,101311.35
2019-03-24T00:22:15.107Z,101308.48
2019-03-24T00:23:19.754Z,101314.64
2019-03-24T00:24:23.940Z,101311.55
2019-03-24T00:25:28.125Z,101314.91
2019-03-24T00:26:32.314Z,101310.97
2019-03-24T00:27:36.534Z,101307.06
2019-03-24T00:28:40.753Z,101308.45
2019-03-24T00:29:44.935Z,101303.94
2019-03-24T00:30:49.266Z,101309.28
2019-03-24T00:31:53.485Z,101307.32
2019-03-24T00:32:58.010Z,101310.97
2019-03-24T00:34:02.262Z,101316.83
2019-03-24T00:35:06.912Z,101309.83
2019-03-24T00:36:11.089Z,101305.33
2019-03-24T00:37:15.273Z,101302.24
2019-03-24T00:38:19.473Z,101294.66
2019-03-24T00:39:23.654Z,101292.96
2019-03-24T00:40:27.832Z,101295.47
2019-03-24T00:41:32.077Z,101301.86
2019-03-24T00:42:36.257Z,101299.61
2019-03-24T00:43:40.462Z,101299.61
2019-03-24T00:44:44.666Z,101302.97
2019-03-24T00:45:48.924Z,101299.02
2019-03-24T00:46:53.135Z,101294.83
2019-03-24T00:47:57.315Z,101294.56
2019-03-24T00:49:01.617Z,101299.32
2019-03-24T00:50:06.633Z,101296.22
2019-03-24T00:51:10.880Z,101289.22
2019-03-24T00:52:15.101Z,101296.22
2019-03-24T00:53:20.087Z,101293.98
2019-03-24T00:54:24.301Z,101290.89
2019-03-24T00:55:28.581Z,101292.28
2019-03-24T00:56:32.762Z,101289.74
2019-03-24T00:57:37.752Z,101291.70
2019-03-24T00:58:43.210Z,101286.95
2019-03-24T00:59:47.452Z,101292.55
2019-03-24T01:00:51.940Z,101287.77
2019-03-24T01:01:56.126Z,101285.52
2019-03-24T01:03:00.308Z,101286.36
2019-03-24T01:04:04.993Z,101286.62
2019-03-24T01:05:09.214Z,101282.72
2019-03-24T01:06:14.712Z,101277.66
2019-03-24T01:07:19.046Z,101278.22
2019-03-24T01:08:24.266Z,101283.27
2019-03-24T01:09:28.456Z,101270.93
2019-03-24T01:10:33.733Z,101275.39
2019-03-24T01:11:37.936Z,101272.53
2019-03-24T01:12:42.113Z,101276.98
2019-03-24T01:13:46.368Z,101269.14
2019-03-24T01:14:50.551Z,101268.00
2019-03-24T01:15:54.855Z,101269.38
2019-03-24T01:16:59.060Z,101273.02
2019-03-24T01:18:03.315Z,101270.48
2019-03-24T01:19:07.493Z,101269.92
2019-03-24T01:20:11.674Z,101261.82
2019-03-24T01:21:15.926Z,101265.44
2019-03-24T01:22:20.153Z,101262.08
2019-03-24T01:23:24.408Z,101261.23
2019-03-24T01:24:28.619Z,101255.08
2019-03-24T01:25:33.152Z,101258.44
2019-03-24T01:26:37.654Z,101261.23
2019-03-24T01:27:41.838Z,101255.89
2019-03-24T01:28:47.644Z,101255.05
2019-03-24T01:29:51.826Z,101255.60
2019-03-24T01:30:56.013Z,101252.19
2019-03-24T01:32:00.279Z,101251.89
2019-03-24T01:33:04.460Z,101254.95
2019-03-24T01:34:08.648Z,101250.17
2019-03-24T01:35:12.824Z,101249.58
2019-03-24T01:36:17.099Z,101251.54
2019-03-24T01:37:21.418Z,101254.30
2019-03-24T01:38:25.610Z,101249.26
2019-03-24T01:39:29.795Z,101256.48
2019-03-24T01:40:33.990Z,101248.94
2019-03-24T01:41:38.173Z,101248.64
2019-03-24T01:42:42.379Z,101250.85
2019-03-24T01:43:46.589Z,101243.53
2019-03-24T01:44:50.771Z,101248.61
2019-03-24T01:45:58.884Z,101246.36
2019-03-24T01:47:00.830Z,101251.11
2019-03-24T01:48:06.124Z,101249.68
2019-03-24T01:49:10.374Z,101234.94
2019-03-24T01:50:14.558Z,101254.04
2019-03-24T01:51:18.845Z,101247.05
2019-03-24T01:52:23.027Z,101252.94
2019-03-24T01:53:27.239Z,101249.52
2019-03-24T01:54:31.414Z,101252.60
2019-03-24T01:55:35.615Z,101248.95
2019-03-24T01:56:39.792Z,101243.07
2019-03-24T01:57:43.974Z,101243.91
2019-03-24T01:58:48.214Z,101244.77
2019-03-24T01:59:52.433Z,101246.42
2019-03-24T02:00:56.615Z,101251.17
2019-03-24T02:02:00.837Z,101250.06
2019-03-24T02:03:05.015Z,101243.00
2019-03-24T02:04:09.219Z,101244.69
2019-03-24T02:05:13.455Z,101237.99
2019-03-24T02:06:19.424Z,101231.00
2019-03-24T02:07:23.616Z,101234.64
2019-03-24T02:08:27.812Z,101232.10
2019-03-24T02:09:32.043Z,101234.31
2019-03-24T02:10:36.271Z,101231.22
2019-03-24T02:11:40.451Z,101232.07
2019-03-24T02:12:44.729Z,101232.00
2019-03-24T02:13:48.978Z,101222.41
2019-03-24T02:14:53.483Z,101228.58
2019-03-24T02:15:57.793Z,101223.54
2019-03-24T02:17:01.974Z,101225.49
2019-03-24T02:18:06.312Z,101224.36
2019-03-24T02:19:10.499Z,101227.44
2019-03-24T02:20:14.765Z,101220.71
2019-03-24T02:21:18.917Z,101221.30
2019-03-24T02:22:24.071Z,101221.85
2019-03-24T02:23:28.255Z,101226.34
2019-03-24T02:24:32.506Z,101227.16
2019-03-24T02:25:36.802Z,101225.46
2019-03-24T02:26:40.982Z,101224.61
2019-03-24T02:27:45.163Z,101226.02
2019-03-24T02:28:49.342Z,101219.53
2019-03-24T02:29:53.531Z,101217.84
2019-03-24T02:30:58.890Z,101221.19
2019-03-24T02:32:03.048Z,101224.84
2019-03-24T02:33:07.234Z,101223.44
2019-03-24T02:34:11.406Z,101223.11
2019-03-24T02:35:15.591Z,101218.92
2019-03-24T02:36:19.791Z,101220.64
2019-03-24T02:37:23.971Z,101224.22
2019-03-24T02:38:28.475Z,101216.63
2019-03-24T02:39:32.656Z,101221.34
2019-03-24T02:40:36.944Z,101221.02
2019-03-24T02:41:41.172Z,101215.68
2019-03-24T02:42:46.413Z,101222.90
2019-03-24T02:43:50.678Z,101220.66
2019-03-24T02:44:54.849Z,101217.56
2019-03-24T02:45:59.104Z,101217.01
2019-03-24T02:47:03.495Z,101209.95
2019-03-24T02:48:07.725Z,101209.95
2019-03-24T02:49:11.908Z,101214.98
2019-03-24T02:50:16.163Z,101221.13
2019-03-24T02:51:20.383Z,101215.20
2019-03-24T02:52:24.605Z,101216.56
2019-03-24T02:53:28.786Z,101218.48
2019-03-24T02:54:32.981Z,101209.80
2019-03-24T02:55:37.148Z,101210.35
2019-03-24T02:56:41.328Z,101212.56
2019-03-24T02:57:45.549Z,101215.66
2019-03-24T02:58:49.715Z,101213.41
2019-03-24T02:59:53.969Z,101212.56
2019-03-24T03:00:58.148Z,101211.42
2019-03-24T03:02:02.327Z,101209.73
2019-03-24T03:03:06.536Z,101215.31
2019-03-24T03:04:10.712Z,101207.48
2019-03-24T03:05:14.989Z,101206.63
2019-03-24T03:06:19.177Z,101202.44
2019-03-24T03:07:23.420Z,101205.20
2019-03-24T03:08:27.621Z,101201.27
2019-03-24T03:09:31.813Z,101206.30
2019-03-24T03:10:36.355Z,101211.05
2019-03-24T03:11:40.535Z,101209.87
2019-03-24T03:12:47.746Z,101203.21
2019-03-24T03:13:51.564Z,101206.55
2019-03-24T03:14:55.751Z,101205.16
2019-03-24T03:15:59.960Z,101205.16
2019-03-24T03:17:04.484Z,101209.36
2019-03-24T03:18:08.663Z,101205.67
2019-03-24T03:19:12.840Z,101207.33
2019-03-24T03:20:17.023Z,101204.24
2019-03-24T03:21:21.242Z,101205.34
2019-03-24T03:22:25.493Z,101205.05
2019-03-24T03:23:29.677Z,101203.36
2019-03-24T03:24:33.860Z,101197.47
2019-03-24T03:25:38.035Z,101202.77
2019-03-24T03:26:42.263Z,101196.88
2019-03-24T03:27:46.442Z,101200.52
2019-03-24T03:28:52.264Z,101193.83
2019-03-24T03:30:00.883Z,101196.08
2019-03-24T03:31:07.064Z,101203.06
2019-03-24T03:32:11.757Z,101197.47
2019-03-24T03:33:15.894Z,101195.52
2019-03-24T03:34:20.071Z,101191.33
2019-03-24T03:35:24.253Z,101196.37
2019-03-24T03:36:28.441Z,101194.67
2019-03-24T03:37:32.665Z,101193.53
2019-03-24T03:38:36.892Z,101194.09
2019-03-24T03:39:41.081Z,101195.78
2019-03-24T03:40:45.305Z,101198.28
2019-03-24T03:41:49.483Z,101189.05
2019-03-24T03:42:53.777Z,101190.70
2019-03-24T03:47:59.571Z,101192.20
2019-03-24T03:49:09.461Z,101191.80
2019-03-24T03:50:17.359Z,101191.50
2019-03-24T03:51:22.568Z,101185.61
2019-03-24T03:52:26.780Z,101187.02
2019-03-24T03:53:31.976Z,101182.52
2019-03-24T03:54:36.143Z,101188.41
2019-03-24T03:55:40.319Z,101182.82
2019-03-24T03:56:44.504Z,101181.12
2019-03-24T03:57:48.675Z,101180.83
2019-03-24T03:58:52.905Z,101183.88
2019-03-24T03:59:57.213Z,101185.83
2019-03-24T04:01:01.390Z,101186.92
2019-03-24T04:02:05.663Z,101177.15
2019-03-24T04:03:09.843Z,101177.66
2019-03-24T04:04:14.619Z,101175.16
2019-03-24T04:05:18.833Z,101179.35
2019-03-24T04:06:23.012Z,101179.05
2019-03-24T04:07:27.205Z,101172.07
2019-03-24T04:08:31.503Z,101180.45
2019-03-24T04:09:35.699Z,101162.09
2019-03-24T04:10:40.014Z,101178.43
2019-03-24T04:11:44.205Z,101177.36
2019-03-24T04:12:48.526Z,101181.55
2019-03-24T04:13:52.708Z,101174.79
2019-03-24T04:14:56.962Z,101174.79
2019-03-24T04:16:01.212Z,101179.23
2019-03-24T04:17:07.462Z,101181.44
2019-03-24T04:18:11.293Z,101178.89
2019-03-24T04:19:15.463Z,101174.66
2019-03-24T04:20:19.675Z,101176.86
2019-03-24T04:21:24.164Z,101179.06
2019-03-24T04:22:28.399Z,101181.23
2019-03-24T04:23:32.584Z,101181.78
2019-03-24T04:24:36.769Z,101185.72
2019-03-24T04:25:40.957Z,101182.63
2019-03-24T04:26:47.098Z,101177.59
2019-03-24T04:27:51.282Z,101170.31
2019-03-24T04:28:55.464Z,101172.56
2019-03-24T04:29:59.658Z,101170.87
2019-03-24T04:31:04.064Z,101182.03
2019-03-24T04:32:08.273Z,101172.27
2019-03-24T04:33:12.451Z,101170.48
2019-03-24T04:34:16.644Z,101170.87
2019-03-24T04:35:20.824Z,101178.66
2019-03-24T04:36:25.006Z,101170.57
2019-03-24T04:37:29.574Z,101177.05
2019-03-24T04:38:33.751Z,101170.36
2019-03-24T04:39:37.931Z,101171.51
2019-03-24T04:40:42.123Z,101164.52
2019-03-24T04:41:46.291Z,101174.00
2019-03-24T04:42:50.536Z,101179.04
2019-03-24T04:43:54.727Z,101174.84
2019-03-24T04:44:58.943Z,101176.55
2019-03-24T04:46:03.130Z,101172.86
2019-03-24T04:47:16.287Z,101175.05
2019-03-24T04:48:13.279Z,101171.71
2019-03-24T04:49:17.456Z,101166.89
2019-03-24T04:50:21.636Z,101180.84
2019-03-24T04:51:25.814Z,101181.35
2019-03-24T04:52:29.994Z,101177.16
2019-03-24T04:53:34.822Z,101182.42
2019-03-24T04:54:39.006Z,101178.86
2019-03-24T04:55:43.294Z,101178.86
2019-03-24T04:56:47.467Z,101183.52
2019-03-24T04:57:51.647Z,101183.22
2019-03-24T04:58:55.859Z,101177.30
2019-03-24T05:00:00.054Z,101172.26
2019-03-24T05:01:04.336Z,101172.80
2019-03-24T05:02:08.514Z,101178.69
2019-03-24T05:03:12.707Z,101178.14
2019-03-24T05:04:16.974Z,101178.98
2019-03-24T05:05:21.225Z,101184.32
2019-03-24T05:06:25.408Z,101176.79
2019-03-24T05:07:29.634Z,101182.37
2019-03-24T05:08:33.824Z,101187.11
2019-03-24T05:09:38.259Z,101180.43
2019-03-24T05:10:42.426Z,101184.91
2019-03-24T05:11:46.689Z,101176.23
2019-03-24T05:12:50.926Z,101179.33
2019-03-24T05:13:55.108Z,101181.58
2019-03-24T05:14:59.296Z,101176.54
2019-03-24T05:16:03.480Z,101179.53
2019-03-24T05:17:07.684Z,101183.08
2019-03-24T05:18:12.066Z,101178.59
2019-03-24T05:19:16.318Z,101180.29
2019-03-24T05:20:20.662Z,101179.14
2019-03-24T05:21:25.090Z,101180.46
2019-03-24T05:22:29.343Z,101175.72
2019-03-24T05:23:33.551Z,101181.31
2019-03-24T05:24:37.802Z,101176.49
2019-03-24T05:25:42.006Z,101182.83
2019-03-24T05:26:46.186Z,101181.19
2019-03-24T05:27:50.398Z,101178.64
2019-03-24T05:28:54.616Z,101176.65
2019-03-24T05:29:58.790Z,101179.14
2019-03-24T05:31:02.973Z,101181.38
2019-03-24T05:32:07.149Z,101180.29
2019-03-24T05:33:11.358Z,101181.69
2019-03-24T05:34:15.573Z,101177.80
2019-03-24T05:35:19.806Z,101187.31
2019-03-24T05:36:24.053Z,101180.88
2019-03-24T05:37:29.205Z,101183.97
2019-03-24T05:38:37.967Z,101192.89
2019-03-24T05:39:41.355Z,101192.34
2019-03-24T05:40:45.534Z,101190.95
2019-03-24T05:41:49.767Z,101183.97
2019-03-24T05:42:54.899Z,101189.80
2019-03-24T05:43:59.141Z,101186.72
2019-03-24T05:45:08.854Z,101193.44
2019-03-24T05:46:13.057Z,101188.16
2019-03-24T05:47:17.231Z,101196.53
2019-03-24T05:48:21.440Z,101193.44
2019-03-24T05:49:25.596Z,101192.64
2019-03-24T05:50:29.803Z,101196.53
2019-03-24T05:51:34.074Z,101191.75
2019-03-24T05:52:38.270Z,101192.05
2019-03-24T05:53:44.085Z,101190.95
2019-03-24T05:54:49.920Z,101191.25
2019-03-24T05:55:54.105Z,101185.97
2019-03-24T05:56:58.359Z,101194.64
2019-03-24T05:58:02.540Z,101189.90
2019-03-24T05:59:06.786Z,101198.06
2019-03-24T06:00:12.214Z,101195.89
2019-03-24T06:01:16.420Z,101201.48
2019-03-24T06:02:21.670Z,101191.45
2019-03-24T06:03:25.858Z,101192.30
2019-03-24T06:04:30.047Z,101197.88
2019-03-24T06:05:34.338Z,101193.10
2019-03-24T06:06:40.702Z,101188.58
2019-03-24T06:07:44.972Z,101194.72
2019-03-24T06:08:49.162Z,101195.56
2019-03-24T06:09:56.130Z,101196.19
2019-03-24T06:11:00.359Z,101197.88
2019-03-24T06:12:04.738Z,101198.69
2019-03-24T06:13:09.289Z,101200.00
2019-03-24T06:14:14.032Z,101202.54
2019-03-24T06:15:18.209Z,101205.66
2019-03-24T06:16:22.418Z,101200.38
2019-03-24T06:17:26.626Z,101209.10
2019-03-24T06:18:30.806Z,101203.27
2019-03-24T06:19:34.985Z,101203.91
2019-03-24T06:20:39.633Z,101200.34
2019-03-24T06:21:43.893Z,101199.00
2019-03-24T06:22:48.259Z,101206.28
2019-03-24T06:23:52.706Z,101204.38
2019-03-24T06:24:56.888Z,101205.27
2019-03-24T06:26:01.066Z,101209.28
2019-03-24T06:27:05.249Z,101213.27
2019-03-24T06:28:09.452Z,101208.57
2019-03-24T06:29:13.625Z,101212.51
2019-03-24T06:30:17.820Z,101212.80
2019-03-24T06:31:21.991Z,101213.73
2019-03-24T06:32:26.170Z,101214.83
2019-03-24T06:33:30.388Z,101213.48
2019-03-24T06:34:34.589Z,101212.97
2019-03-24T06:35:41.267Z,101211.88
2019-03-24T06:36:45.446Z,101212.97
2019-03-24T06:37:49.699Z,101211.88
2019-03-24T06:38:53.935Z,101209.08
2019-03-24T06:39:58.141Z,101209.97
2019-03-24T06:41:03.070Z,101210.64
2019-03-24T06:42:07.341Z,101209.28
2019-03-24T06:43:11.555Z,101212.75
2019-03-24T06:44:16.861Z,101200.60
2019-03-24T06:45:28.371Z,101216.21
2019-03-24T06:46:28.979Z,101213.20
2019-03-24T06:47:33.154Z,101214.34
2019-03-24T06:48:37.334Z,101215.86
2019-03-24T06:49:45.887Z,101216.41
2019-03-24T06:50:50.109Z,101218.14
2019-03-24T06:51:54.574Z,101213.69
2019-03-24T06:52:58.787Z,101216.82
2019-03-24T06:54:03.010Z,101216.53
2019-03-24T06:55:08.408Z,101218.22
2019-03-24T06:56:12.747Z,101212.04
2019-03-24T06:57:17.090Z,101206.16
2019-03-24T06:58:21.285Z,101212.15
2019-03-24T06:59:25.553Z,101217.48
2019-03-24T07:00:29.768Z,101206.63
2019-03-24T07:01:34.051Z,101204.42
2019-03-24T07:02:38.230Z,101212.30
2019-03-24T07:03:42.615Z,101209.91
2019-03-24T07:04:46.803Z,101204.64
2019-03-24T07:05:51.054Z,101203.88
2019-03-24T07:06:55.703Z,101210.53
2019-03-24T07:07:59.999Z,101213.18
2019-03-24T07:09:06.203Z,101206.52
2019-03-24T07:10:11.114Z,101213.77
2019-03-24T07:11:15.369Z,101218.03
2019-03-24T07:12:21.230Z,101212.25
2019-03-24T07:13:25.514Z,101213.16
2019-03-24T07:14:30.437Z,101211.25
2019-03-24T07:15:34.618Z,101212.55
2019-03-24T07:16:38.800Z,101211.73
2019-03-24T07:17:43.006Z,101213.76
2019-03-24T07:18:47.187Z,101208.81
2019-03-24T07:19:51.371Z,101210.63
2019-03-24T07:20:55.678Z,101207.63
2019-03-24T07:22:01.041Z,101205.44
2019-03-24T07:23:05.311Z,101203.45
2019-03-24T07:24:09.586Z,101204.04
2019-03-24T07:25:13.795Z,101206.28
2019-03-24T07:26:17.977Z,101210.31
2019-03-24T07:27:22.163Z,101201.07
2019-03-24T07:28:26.342Z,101204.19
2019-03-24T07:29:30.535Z,101206.23
2019-03-24T07:30:34.840Z,101199.58
2019-03-24T07:31:39.023Z,101199.72
2019-03-24T07:32:43.213Z,101197.61
2019-03-24T07:33:47.458Z,101197.36
2019-03-24T07:34:51.641Z,101197.70
2019-03-24T07:35:55.859Z,101195.03
2019-03-24T07:37:01.083Z,101201.83
2019-03-24T07:38:05.399Z,101203.83
2019-03-24T07:39:09.647Z,101198.89
2019-03-24T07:40:13.898Z,101202.34
2019-03-24T07:41:18.123Z,101198.22
2019-03-24T07:42:22.309Z,101202.48
2019-03-24T07:43:26.594Z,101201.09
2019-03-24T07:44:30.766Z,101204.73
2019-03-24T07:45:36.124Z,101201.33
2019-03-24T07:46:40.333Z,101204.17
2019-03-24T07:47:44.539Z,101196.89
2019-03-24T07:48:48.786Z,101199.48
2019-03-24T07:49:54.061Z,101199.80
2019-03-24T07:50:58.530Z,101198.67
2019-03-24T07:52:02.806Z,101202.32
2019-03-24T07:53:06.983Z,101193.98
2019-03-24T07:54:11.214Z,101197.38
2019-03-24T07:55:15.397Z,101193.81
2019-03-24T07:56:22.491Z,101190.50
2019-03-24T07:57:28.638Z,101191.12
2019-03-24T07:58:32.964Z,101194.81
2019-03-24T07:59:37.145Z,101193.13
2019-03-24T08:00:41.388Z,101195.72
2019-03-24T08:01:45.570Z,101194.11
2019-03-24T08:02:52.478Z,101198.70
2019-03-24T08:03:56.874Z,101193.72
2019-03-24T08:05:01.063Z,101196.08
2019-03-24T08:06:05.311Z,101180.92
2019-03-24T08:07:09.513Z,101191.66
2019-03-24T08:08:13.689Z,101191.14
2019-03-24T08:09:17.970Z,101184.17
2019-03-24T08:10:22.150Z,101185.02
2019-03-24T08:11:26.402Z,101181.41
2019-03-24T08:12:30.582Z,101164.83
2019-03-24T08:13:34.778Z,101179.75
2019-03-24T08:14:39.000Z,101176.41
2019-03-24T08:15:43.178Z,101171.09
2019-03-24T08:16:47.362Z,101179.52
2019-03-24T08:17:51.584Z,101175.07
2019-03-24T08:18:55.763Z,101171.42
2019-03-24T08:19:59.990Z,101157.30
2019-03-24T08:21:05.080Z,101161.02
2019-03-24T08:22:09.282Z,101167.48
2019-03-24T08:23:13.456Z,101160.74
2019-03-24T08:24:17.674Z,101161.88
2019-03-24T08:25:21.892Z,101167.47
2019-03-24T08:26:26.070Z,101162.12
2019-03-24T08:27:32.766Z,101156.77
2019-03-24T08:28:37.138Z,101157.91
2019-03-24T08:29:41.330Z,101156.20
2019-03-24T08:30:45.558Z,101145.77
2019-03-24T08:31:49.748Z,101150.53
2019-03-24T08:32:53.994Z,101147.98
2019-03-24T08:33:58.170Z,101142.09
2019-03-24T08:35:02.485Z,101139.80
2019-03-24T08:36:06.661Z,101143.42
2019-03-24T08:37:11.300Z,101140.03
2019-03-24T08:38:16.540Z,101136.36
2019-03-24T08:39:20.719Z,101138.30
2019-03-24T08:40:24.898Z,101141.39
2019-03-24T08:41:29.079Z,101141.11
2019-03-24T08:42:33.294Z,101142.22
2019-03-24T08:43:37.473Z,101140.53
2019-03-24T08:44:41.731Z,101136.50
2019-03-24T08:45:45.994Z,101143.23
2019-03-24T08:46:50.176Z,101146.31
2019-03-24T08:47:54.855Z,101141.73
2019-03-24T08:48:59.103Z,101132.57
2019-03-24T08:50:03.459Z,101129.38
2019-03-24T08:51:07.654Z,101132.44
2019-03-24T08:52:11.835Z,101130.67
2019-03-24T08:53:16.064Z,101123.27
2019-03-24T08:54:20.289Z,101119.21
2019-03-24T08:55:24.418Z,101119.42
2019-03-24T08:56:28.598Z,101118.19
2019-03-24T08:57:32.778Z,101121.98
2019-03-24T08:58:36.984Z,101120.20
2019-03-24T08:59:41.493Z,101121.73
2019-03-24T09:00:45.772Z,101112.52
2019-03-24T09:01:49.941Z,101115.45
2019-03-24T09:02:54.122Z,101100.97
2019-03-24T09:03:58.291Z,101111.17
2019-03-24T09:05:02.499Z,101106.70
2019-03-24T09:06:06.686Z,101103.10
2019-03-24T09:07:10.850Z,101104.72
2019-03-24T09:08:15.057Z,101099.90
2019-03-24T09:09:19.212Z,101099.99
2019-03-24T09:10:23.488Z,101094.42
2019-03-24T09:11:31.549Z,101093.38
2019-03-24T09:12:33.605Z,101095.66
2019-03-24T09:13:37.790Z,101093.54
2019-03-24T09:14:42.041Z,101094.80
2019-03-24T09:15:46.236Z,101097.42
2019-03-24T09:16:50.446Z,101095.70
2019-03-24T09:17:54.648Z,101095.59
2019-03-24T09:18:58.834Z,101090.17
2019-03-24T09:20:03.045Z,101092.97
2019-03-24T09:21:07.250Z,101082.44
2019-03-24T09:22:11.476Z,101084.27
2019-03-24T09:23:15.670Z,101080.34
2019-03-24T09:24:19.866Z,101078.16
2019-03-24T09:25:24.067Z,101082.94
2019-03-24T09:26:28.238Z,101082.86
2019-03-24T09:27:32.443Z,101078.93
2019-03-24T09:28:36.620Z,101068.98
2019-03-24T09:29:40.804Z,101074.55
2019-03-24T09:30:44.982Z,101076.23
2019-03-24T09:31:49.191Z,101067.19
2019-03-24T09:32:53.366Z,101064.86
2019-03-24T09:33:57.575Z,101075.53
2019-03-24T09:35:01.755Z,101073.53
2019-03-24T09:36:06.007Z,101070.30
2019-03-24T09:37:11.227Z,101066.43
2019-03-24T09:38:15.436Z,101067.37
2019-03-24T09:39:19.617Z,101069.49
2019-03-24T09:40:30.114Z,101065.84
2019-03-24T09:41:35.396Z,101070.00
2019-03-24T09:42:39.615Z,101073.17
2019-03-24T09:43:43.797Z,101072.34
2019-03-24T09:44:47.984Z,101072.18
2019-03-24T09:45:52.168Z,101067.44
2019-03-24T09:46:56.350Z,101063.48
2019-03-24T09:48:00.827Z,101064.41
2019-03-24T09:49:05.111Z,101066.67
2019-03-24T09:50:09.290Z,101058.73
2019-03-24T09:51:13.471Z,101060.78
2019-03-24T09:52:18.622Z,101067.34
2019-03-24T09:53:22.839Z,101062.97
2019-03-24T09:54:27.115Z,101061.84
2019-03-24T09:55:31.296Z,101062.73
2019-03-24T09:56:35.545Z,101056.80
2019-03-24T09:57:39.723Z,101055.96
2019-03-24T09:58:43.927Z,101058.47
2019-03-24T09:59:48.137Z,101062.61
2019-03-24T10:00:52.374Z,101068.17
2019-03-24T10:01:56.561Z,101069.01
2019-03-24T10:03:01.586Z,101068.42
2019-03-24T10:04:05.763Z,101070.30
2019-03-24T10:05:09.986Z,101065.58
2019-03-24T10:06:14.164Z,101069.84
2019-03-24T10:07:18.377Z,101063.42
2019-03-24T10:08:22.598Z,101063.42
2019-03-24T10:09:26.803Z,101061.23
2019-03-24T10:10:31.029Z,101060.98
2019-03-24T10:11:35.205Z,101066.78
2019-03-24T10:12:39.457Z,101065.84
2019-03-24T10:13:43.640Z,101070.44
2019-03-24T10:14:47.821Z,101062.86
2019-03-24T10:15:52.094Z,101063.81
2019-03-24T10:16:56.296Z,101066.91
2019-03-24T10:18:00.474Z,101071.83
2019-03-24T10:19:13.514Z,101064.47
2019-03-24T10:20:10.585Z,101063.97
2019-03-24T10:21:14.790Z,101067.42
2019-03-24T10:22:18.967Z,101060.03
2019-03-24T10:23:23.152Z,101063.38
2019-03-24T10:24:27.325Z,101052.31
2019-03-24T10:25:31.634Z,101046.61
2019-03-24T10:26:35.818Z,101042.36
2019-03-24T10:27:39.998Z,101053.63
2019-03-24T10:28:44.183Z,101049.50
2019-03-24T10:29:48.366Z,101050.55
2019-03-24T10:30:52.595Z,101040.80
2019-03-24T10:31:56.780Z,101040.13
2019-03-24T10:33:00.968Z,101040.09
2019-03-24T10:34:05.159Z,101040.04
2019-03-24T10:35:10.014Z,101043.50
2019-03-24T10:36:14.314Z,101039.17
2019-03-24T10:37:18.498Z,101036.36
2019-03-24T10:38:22.680Z,101034.18
2019-03-24T10:39:26.866Z,101026.58
2019-03-24T10:40:31.377Z,101025.55
2019-03-24T10:41:36.060Z,101028.89
2019-03-24T10:42:40.243Z,101026.30
2019-03-24T10:43:44.437Z,101026.59
2019-03-24T10:44:48.762Z,101022.95
2019-03-24T10:45:53.002Z,101021.62
2019-03-24T10:46:57.244Z,101025.79
2019-03-24T10:48:01.424Z,101019.84
2019-03-24T10:49:05.680Z,101020.00
2019-03-24T10:50:10.018Z,101017.47
2019-03-24T10:51:14.203Z,101014.42
2019-03-24T10:52:18.413Z,101015.80
2019-03-24T10:53:22.599Z,101013.92
2019-03-24T10:54:26.818Z,101016.58
2019-03-24T10:55:30.986Z,101004.54
2019-03-24T10:56:35.170Z,101011.08
2019-03-24T10:57:39.491Z,101009.08
2019-03-24T10:58:43.681Z,101005.63
2019-03-24T10:59:47.856Z,101012.90
2019-03-24T11:00:52.057Z,101006.84
2019-03-24T11:01:56.238Z,101013.73
2019-03-24T11:03:00.486Z,101012.63
2019-03-24T11:04:04.653Z,100999.78
2019-03-24T11:05:08.817Z,101021.06
2019-03-24T11:06:12.994Z,101007.69
2019-03-24T11:07:17.178Z,101008.67
2019-03-24T11:08:21.395Z,101017.23
2019-03-24T11:09:25.571Z,101014.42
2019-03-24T11:10:29.808Z,101014.28
2019-03-24T11:11:33.994Z,101014.72
2019-03-24T11:12:38.165Z,101013.53
2019-03-24T11:13:42.449Z,101012.83
2019-03-24T11:14:47.322Z,101011.84
2019-03-24T11:15:51.521Z,101010.59
2019-03-24T11:16:55.693Z,101006.23
2019-03-24T11:17:59.866Z,101005.47
2019-03-24T11:19:04.608Z,101008.69
2019-03-24T11:20:08.747Z,101003.62
2019-03-24T11:21:12.931Z,101001.87
2019-03-24T11:22:17.178Z,100999.50
2019-03-24T11:23:21.406Z,101000.58
2019-03-24T11:24:25.580Z,101004.17
2019-03-24T11:25:29.753Z,101000.86
2019-03-24T11:26:33.939Z,101003.78
2019-03-24T11:27:38.391Z,101008.62
2019-03-24T11:28:42.575Z,101003.99
2019-03-24T11:29:46.784Z,101007.72
2019-03-24T11:30:50.963Z,101005.38
2019-03-24T11:31:55.215Z,101002.92
2019-03-24T11:32:59.399Z,101002.92
2019-03-24T11:34:04.650Z,100994.77
2019-03-24T11:35:09.660Z,100997.62
2019-03-24T11:36:13.855Z,100997.94
2019-03-24T11:37:18.043Z,100995.39
2019-03-24T11:38:22.259Z,100996.92
2019-03-24T11:39:26.442Z,100994.69
2019-03-24T11:40:30.654Z,100996.05
2019-03-24T11:41:34.837Z,100997.74
2019-03-24T11:42:39.029Z,100994.01
2019-03-24T11:43:43.203Z,100994.36
2019-03-24T11:44:47.387Z,100997.90
2019-03-24T11:45:51.695Z,100991.09
2019-03-24T11:46:55.947Z,100992.36
2019-03-24T11:48:00.132Z,100990.11
2019-03-24T11:49:04.810Z,100982.59
2019-03-24T11:50:08.990Z,100990.69
2019-03-24T11:51:13.199Z,100989.78
2019-03-24T11:52:17.380Z,100991.28
2019-03-24T11:53:21.583Z,100992.13
2019-03-24T11:54:25.746Z,100992.03
2019-03-24T11:55:29.932Z,100990.94
2019-03-24T11:56:34.431Z,100983.81
2019-03-24T11:57:38.615Z,100995.36
2019-03-24T11:58:42.822Z,100997.12
2019-03-24T11:59:46.977Z,100989.00
2019-03-24T12:00:51.158Z,100993.58
2019-03-24T12:01:55.369Z,100994.50
2019-03-24T12:02:59.550Z,100988.31
2019-03-24T12:04:03.806Z,100989.03
2019-03-24T12:05:07.988Z,100987.94
2019-03-24T12:06:14.843Z,100989.00
2019-03-24T12:07:20.503Z,100990.97
2019-03-24T12:08:24.732Z,100985.07
2019-03-24T12:09:29.139Z,100988.73
2019-03-24T12:10:33.325Z,100982.93
2019-03-24T12:11:37.506Z,100984.89
2019-03-24T12:12:41.799Z,100986.89
2019-03-24T12:13:45.977Z,100986.64
2019-03-24T12:14:50.161Z,100963.80
2019-03-24T12:15:54.365Z,100981.56
2019-03-24T12:16:58.548Z,100986.48
2019-03-24T12:18:02.834Z,100983.95
2019-03-24T12:19:07.058Z,100980.52